Time;durP1;ratioP1;P1;durP2;ratioP2;P2;SDS_P1;SDS_P2;PMS_P1;PMS_P2;Temp;Humidity;BMP_temperature;BMP_pressure;BME280_temperature;BME280_humidity;BME280_pressure;Samples;Min_cycle;Max_cycle;Signal;HPM_P1;HPM_P2
2022/12/13 00:01:15;;;;;;;33.35;15.85;;;;;;;;;;4996460;28;20409;-78
2022/12/13 00:03:41;;;;;;;35.47;16.15;;;;;;;;;;4995831;28;20042;-78
2022/12/13 00:06:08;;;;;;;36.28;15.80;;;;;;;;;;4995934;28;20022;-78
2022/12/13 00:08:34;;;;;;;33.58;15.75;;;;;;;;;;4995729;28;20019;-78
2022/12/13 00:11:01;;;;;;;34.75;15.45;;;;;;;;;;4996225;28;20531;-78
2022/12/13 00:13:28;;;;;;;35.83;15.57;;;;;;;;;;4995809;28;20031;-78
2022/12/13 00:15:57;;;;;;;37.25;15.27;;;;;;;;;;4996034;28;20157;-78
2022/12/13 00:18:24;;;;;;;33.17;15.03;;;;;;;;;;4995853;28;20027;-78
2022/12/13 00:20:50;;;;;;;38.38;16.00;;;;;;;;;;4995783;28;20259;-78
2022/12/13 00:23:16;;;;;;;32.55;14.90;;;;;;;;;;4978633;28;20120;-78
2022/12/13 00:25:43;;;;;;;35.53;15.70;;;;;;;;;;4995386;28;20097;-78
2022/12/13 00:28:09;;;;;;;32.55;14.90;;;;;;;;;;4995533;28;20058;-78
2022/12/13 00:30:38;;;;;;;34.05;15.80;;;;;;;;;;4995355;28;20467;-78
2022/12/13 00:33:05;;;;;;;31.38;15.55;;;;;;;;;;4995617;28;20026;-78
2022/12/13 00:35:31;;;;;;;33.38;14.52;;;;;;;;;;4995555;28;20432;-78
2022/12/13 00:37:57;;;;;;;36.00;15.63;;;;;;;;;;4995641;28;20117;-78
2022/12/13 00:40:23;;;;;;;28.92;14.15;;;;;;;;;;4995644;28;20058;-78
2022/12/13 00:42:49;;;;;;;34.58;15.43;;;;;;;;;;4995179;28;20022;-78
2022/12/13 00:45:15;;;;;;;34.95;14.52;;;;;;;;;;4994976;28;20118;-78
2022/12/13 00:47:41;;;;;;;29.35;14.43;;;;;;;;;;4995004;28;20022;-78
2022/12/13 00:50:07;;;;;;;30.42;13.82;;;;;;;;;;4995118;28;20576;-78
2022/12/13 00:52:34;;;;;;;33.95;13.48;;;;;;;;;;4995239;28;20031;-78
2022/12/13 00:55:00;;;;;;;32.85;13.68;;;;;;;;;;4994665;28;20054;-78
2022/12/13 00:57:26;;;;;;;35.40;14.60;;;;;;;;;;4994864;28;20113;-78
2022/12/13 00:59:52;;;;;;;32.20;13.88;;;;;;;;;;4994874;28;20435;-78
2022/12/13 01:02:18;;;;;;;33.13;14.50;;;;;;;;;;4994559;28;20037;-78
2022/12/13 01:04:44;;;;;;;33.83;14.70;;;;;;;;;;4994945;28;20049;-78
2022/12/13 01:07:10;;;;;;;35.22;15.38;;;;;;;;;;4993788;28;20480;-78
2022/12/13 01:09:38;;;;;;;31.52;14.73;;;;;;;;;;4994733;28;20028;-78
2022/12/13 01:12:06;;;;;;;29.38;13.77;;;;;;;;;;4977339;28;20054;-78
2022/12/13 01:14:34;;;;;;;33.92;14.90;;;;;;;;;;4994731;28;20022;-78
2022/12/13 01:17:00;;;;;;;32.65;15.02;;;;;;;;;;4994798;28;20030;-78
2022/12/13 01:19:27;;;;;;;34.63;14.52;;;;;;;;;;4995192;28;20026;-78
2022/12/13 01:21:57;;;;;;;32.42;13.70;;;;;;;;;;4995008;28;20105;-78
2022/12/13 01:24:24;;;;;;;36.38;15.65;;;;;;;;;;4995233;28;20030;-78
2022/12/13 01:26:51;;;;;;;35.50;13.57;;;;;;;;;;4993486;28;20109;-78
2022/12/13 01:29:18;;;;;;;36.03;15.40;;;;;;;;;;4987765;28;20042;-77
2022/12/13 01:31:44;;;;;;;34.58;13.75;;;;;;;;;;4994680;28;20023;-78
2022/12/13 01:34:14;;;;;;;28.58;13.68;;;;;;;;;;4994511;28;20026;-78
2022/12/13 01:36:41;;;;;;;31.17;13.80;;;;;;;;;;4994640;28;20779;-78
2022/12/13 01:39:08;;;;;;;39.72;15.70;;;;;;;;;;4994771;28;20030;-78
2022/12/13 01:41:34;;;;;;;33.83;14.07;;;;;;;;;;4994655;28;20240;-78
2022/12/13 01:44:04;;;;;;;32.50;14.63;;;;;;;;;;4994827;28;20038;-78
2022/12/13 01:46:31;;;;;;;31.98;14.35;;;;;;;;;;4994588;28;20030;-77
2022/12/13 01:49:00;;;;;;;32.35;13.15;;;;;;;;;;4994544;28;20050;-78
2022/12/13 01:51:28;;;;;;;35.70;15.65;;;;;;;;;;4976899;28;20029;-78
2022/12/13 01:53:56;;;;;;;33.10;14.80;;;;;;;;;;4994350;28;20035;-78
2022/12/13 01:56:24;;;;;;;34.45;15.13;;;;;;;;;;4993869;28;20428;-78
2022/12/13 01:58:51;;;;;;;26.65;13.90;;;;;;;;;;4994106;28;20038;-78
2022/12/13 02:01:17;;;;;;;31.42;13.57;;;;;;;;;;4994243;28;20030;-78
2022/12/13 02:03:44;;;;;;;29.80;13.52;;;;;;;;;;4994013;28;20744;-78
2022/12/13 02:06:13;;;;;;;32.15;14.02;;;;;;;;;;4994412;28;20030;-78
2022/12/13 02:08:41;;;;;;;33.00;14.90;;;;;;;;;;4994225;28;20037;-78
2022/12/13 02:11:07;;;;;;;31.80;13.55;;;;;;;;;;4994145;28;20018;-78
2022/12/13 02:13:33;;;;;;;29.58;14.23;;;;;;;;;;4994317;28;20128;-78
2022/12/13 02:16:07;;;;;;;38.20;13.85;;;;;;;;;;4994172;28;20066;-78
2022/12/13 02:18:33;;;;;;;32.58;14.38;;;;;;;;;;5008924;28;20026;-78
2022/12/13 02:21:02;;;;;;;33.88;15.27;;;;;;;;;;5017309;28;20080;-78
2022/12/13 02:23:31;;;;;;;34.53;15.80;;;;;;;;;;4999521;28;20061;-78
2022/12/13 02:26:03;;;;;;;36.15;14.85;;;;;;;;;;5000654;28;20030;-78
2022/12/13 02:28:48;;;;;;;30.60;13.90;;;;;;;;;;4997686;28;20089;-78
2022/12/13 02:31:16;;;;;;;31.73;14.23;;;;;;;;;;4997648;28;20026;-78
2022/12/13 02:34:02;;;;;;;33.53;14.15;;;;;;;;;;4997274;28;20038;-78
2022/12/13 02:36:30;;;;;;;33.78;14.38;;;;;;;;;;4996880;28;20030;-77
2022/12/13 02:39:02;;;;;;;33.63;14.50;;;;;;;;;;4997385;28;20030;-78
2022/12/13 02:41:36;;;;;;;29.83;13.77;;;;;;;;;;4977552;28;20049;-78
2022/12/13 02:44:14;;;;;;;31.38;15.05;;;;;;;;;;4977485;28;20058;-78
2022/12/13 02:46:42;;;;;;;34.47;14.45;;;;;;;;;;4977812;28;20027;-77
2022/12/13 02:49:09;;;;;;;34.92;14.32;;;;;;;;;;4977486;28;20019;-78
2022/12/13 02:51:37;;;;;;;33.15;13.98;;;;;;;;;;4977412;28;20105;-77
2022/12/13 02:54:03;;;;;;;32.22;14.32;;;;;;;;;;4977736;28;20031;-78
2022/12/13 02:56:30;;;;;;;32.30;14.05;;;;;;;;;;4976992;28;20043;-78
2022/12/13 02:58:58;;;;;;;34.33;14.55;;;;;;;;;;4977188;28;20022;-78
2022/12/13 03:01:42;;;;;;;34.13;14.80;;;;;;;;;;4977136;28;20085;-78
2022/12/13 03:04:08;;;;;;;30.15;14.70;;;;;;;;;;4977148;28;20035;-78
2022/12/13 03:06:43;;;;;;;35.33;15.25;;;;;;;;;;4977153;28;20027;-78
2022/12/13 03:09:24;;;;;;;32.40;14.95;;;;;;;;;;4976991;28;20023;-78
2022/12/13 03:15:03;;;;;;;32.60;14.10;;;;;;;;;;4976974;28;20101;-78
2022/12/13 03:17:31;;;;;;;30.70;14.80;;;;;;;;;;4997484;28;20029;-78
2022/12/13 03:19:57;;;;;;;30.52;14.23;;;;;;;;;;5015842;28;20029;-78
2022/12/13 03:22:24;;;;;;;30.23;14.15;;;;;;;;;;5015594;28;20018;-78
2022/12/13 03:24:51;;;;;;;31.52;13.70;;;;;;;;;;5015634;28;20476;-78
2022/12/13 03:27:17;;;;;;;30.63;14.60;;;;;;;;;;5016088;28;20018;-78
2022/12/13 03:29:43;;;;;;;28.80;12.70;;;;;;;;;;5014461;28;20029;-78
2022/12/13 03:32:09;;;;;;;30.40;14.30;;;;;;;;;;5015595;28;20022;-78
2022/12/13 03:34:35;;;;;;;30.10;13.77;;;;;;;;;;5015444;28;20055;-78
2022/12/13 03:37:01;;;;;;;33.28;14.82;;;;;;;;;;5015328;28;20028;-78
2022/12/13 03:39:27;;;;;;;34.58;14.57;;;;;;;;;;5015284;28;20034;-78
2022/12/13 03:41:53;;;;;;;31.58;14.10;;;;;;;;;;5015438;28;20098;-77
2022/12/13 03:44:19;;;;;;;28.35;13.93;;;;;;;;;;5015267;28;20030;-78
2022/12/13 03:46:45;;;;;;;31.58;15.23;;;;;;;;;;5015319;28;20073;-78
2022/12/13 03:49:11;;;;;;;33.88;16.05;;;;;;;;;;5008567;28;20023;-78
2022/12/13 03:51:37;;;;;;;30.67;15.88;;;;;;;;;;4978149;28;20022;-77
2022/12/13 03:54:03;;;;;;;33.03;14.95;;;;;;;;;;4995705;28;20062;-78
2022/12/13 03:56:29;;;;;;;33.72;14.43;;;;;;;;;;4995329;28;20485;-78
2022/12/13 03:58:55;;;;;;;29.55;14.57;;;;;;;;;;4995239;28;20030;-77
2022/12/13 04:01:22;;;;;;;32.80;14.73;;;;;;;;;;4995471;28;20029;-78
2022/12/13 04:03:48;;;;;;;30.60;14.15;;;;;;;;;;4995678;28;20049;-78
2022/12/13 04:06:14;;;;;;;30.98;14.23;;;;;;;;;;4995324;28;20469;-78
2022/12/13 04:08:40;;;;;;;32.63;14.90;;;;;;;;;;4995352;28;20421;-78
2022/12/13 04:13:55;;;;;;;39.00;17.67;;;;;;;;;;4995222;28;20037;-78
2022/12/13 04:16:21;;;;;;;34.30;15.32;;;;;;;;;;4995350;28;20026;-78
2022/12/13 04:18:47;;;;;;;37.47;17.38;;;;;;;;;;4995158;28;20065;-78
2022/12/13 04:21:13;;;;;;;32.15;15.80;;;;;;;;;;4995146;28;20077;-78
2022/12/13 04:23:39;;;;;;;50.65;17.73;;;;;;;;;;4995117;28;20030;-78
2022/12/13 04:26:05;;;;;;;34.90;14.98;;;;;;;;;;4995026;28;20026;-77
2022/12/13 04:28:31;;;;;;;34.40;16.27;;;;;;;;;;4995268;28;20058;-77
2022/12/13 04:30:57;;;;;;;26.88;14.57;;;;;;;;;;4995079;28;20050;-78
2022/12/13 04:33:24;;;;;;;29.38;14.02;;;;;;;;;;4994755;28;20023;-78
2022/12/13 04:35:50;;;;;;;28.50;14.00;;;;;;;;;;4994847;28;20057;-78
2022/12/13 04:38:16;;;;;;;30.52;14.82;;;;;;;;;;4994625;28;20401;-78
2022/12/13 04:40:42;;;;;;;27.33;14.73;;;;;;;;;;4994578;28;20101;-78
2022/12/13 04:43:08;;;;;;;30.42;14.35;;;;;;;;;;4994638;28;20065;-77
2022/12/13 04:45:34;;;;;;;30.85;14.98;;;;;;;;;;4994617;28;20030;-77
2022/12/13 04:48:00;;;;;;;29.92;14.50;;;;;;;;;;4994620;28;20033;-77
2022/12/13 04:50:26;;;;;;;34.58;14.68;;;;;;;;;;4994583;28;20034;-78
2022/12/13 04:52:52;;;;;;;29.73;14.85;;;;;;;;;;4994338;28;20076;-78
2022/12/13 04:55:18;;;;;;;30.15;15.30;;;;;;;;;;4994178;28;20477;-77
2022/12/13 04:57:44;;;;;;;44.70;16.40;;;;;;;;;;4981271;28;20029;-77
2022/12/13 05:00:12;;;;;;;37.20;16.30;;;;;;;;;;4974847;28;20026;-77
2022/12/13 05:02:40;;;;;;;29.88;15.65;;;;;;;;;;4975491;28;20027;-78
2022/12/13 05:05:09;;;;;;;28.67;14.50;;;;;;;;;;4975148;28;20050;-77
2022/12/13 05:07:35;;;;;;;39.38;17.02;;;;;;;;;;4974927;28;20023;-77
2022/12/13 05:10:01;;;;;;;39.67;16.23;;;;;;;;;;4974860;28;20027;-77
2022/12/13 05:12:27;;;;;;;30.33;16.33;;;;;;;;;;4974918;28;20533;-77
2022/12/13 05:14:56;;;;;;;29.55;15.25;;;;;;;;;;4974795;28;20073;-78
2022/12/13 05:17:22;;;;;;;26.90;14.95;;;;;;;;;;4974498;28;20367;-78
2022/12/13 05:19:48;;;;;;;30.98;16.30;;;;;;;;;;4974620;28;20565;-77
2022/12/13 05:22:14;;;;;;;33.00;16.42;;;;;;;;;;4975199;28;20047;-77
2022/12/13 05:24:44;;;;;;;33.38;16.45;;;;;;;;;;4975078;28;20070;-77
2022/12/13 05:27:10;;;;;;;30.48;15.52;;;;;;;;;;4986191;28;20500;-78
2022/12/13 05:29:37;;;;;;;36.05;16.88;;;;;;;;;;4996648;28;20473;-78
2022/12/13 05:32:03;;;;;;;33.78;16.33;;;;;;;;;;4987548;28;20027;-77
2022/12/13 05:34:29;;;;;;;34.75;16.30;;;;;;;;;;4984884;28;20522;-78
2022/12/13 05:36:55;;;;;;;32.83;17.58;;;;;;;;;;4989826;28;20478;-78
2022/12/13 05:39:21;;;;;;;33.28;16.73;;;;;;;;;;4966901;28;20042;-77
2022/12/13 05:41:47;;;;;;;33.95;16.85;;;;;;;;;;4975120;28;20078;-77
2022/12/13 05:44:13;;;;;;;38.05;17.98;;;;;;;;;;4983740;28;20036;-77
2022/12/13 05:46:40;;;;;;;32.13;16.35;;;;;;;;;;5006705;28;20098;-77
2022/12/13 05:49:06;;;;;;;38.20;17.63;;;;;;;;;;4987677;28;20073;-78
2022/12/13 05:51:31;;;;;;;31.70;16.15;;;;;;;;;;4993342;28;20038;-77
2022/12/13 05:53:57;;;;;;;32.65;18.00;;;;;;;;;;4996454;28;20405;-78
2022/12/13 05:56:24;;;;;;;39.50;18.48;;;;;;;;;;4997661;28;20046;-78
2022/12/13 05:58:50;;;;;;;35.05;17.05;;;;;;;;;;4998051;28;20034;-78
2022/12/13 06:01:16;;;;;;;35.75;17.75;;;;;;;;;;4995688;28;20030;-78
2022/12/13 06:03:42;;;;;;;37.30;16.83;;;;;;;;;;4978722;28;20027;-78
2022/12/13 06:06:08;;;;;;;31.30;16.20;;;;;;;;;;4978258;28;20027;-78
2022/12/13 06:08:35;;;;;;;35.58;18.65;;;;;;;;;;4982523;28;20112;-78
2022/12/13 06:11:02;;;;;;;35.17;17.73;;;;;;;;;;4997475;28;20030;-78
2022/12/13 06:13:28;;;;;;;37.70;17.63;;;;;;;;;;4997680;28;20484;-78
2022/12/13 06:15:54;;;;;;;34.40;16.08;;;;;;;;;;4997719;28;20026;-78
2022/12/13 06:18:20;;;;;;;33.75;16.67;;;;;;;;;;4997630;28;20027;-78
2022/12/13 06:20:55;;;;;;;35.00;16.25;;;;;;;;;;4997564;28;20026;-77
2022/12/13 06:23:21;;;;;;;32.15;16.08;;;;;;;;;;4989629;28;20022;-77
2022/12/13 06:25:48;;;;;;;33.13;15.90;;;;;;;;;;4977980;28;20480;-77
2022/12/13 06:28:14;;;;;;;35.25;15.90;;;;;;;;;;4978241;28;20027;-77
2022/12/13 06:30:40;;;;;;;35.42;16.52;;;;;;;;;;4979711;28;20462;-77
2022/12/13 06:33:06;;;;;;;35.50;16.17;;;;;;;;;;4983317;28;20062;-77
2022/12/13 06:35:32;;;;;;;31.60;16.23;;;;;;;;;;4976025;28;20479;-77
2022/12/13 06:37:58;;;;;;;33.50;16.17;;;;;;;;;;4991679;28;20023;-77
2022/12/13 06:40:24;;;;;;;30.23;15.70;;;;;;;;;;4997292;28;20030;-77
2022/12/13 06:42:50;;;;;;;35.63;17.10;;;;;;;;;;4997083;28;20027;-78
2022/12/13 06:45:16;;;;;;;33.03;16.45;;;;;;;;;;4997121;28;20428;-78
2022/12/13 06:47:42;;;;;;;37.95;17.38;;;;;;;;;;4997181;28;20027;-78
2022/12/13 06:50:08;;;;;;;47.90;16.92;;;;;;;;;;4994153;28;20042;-78
2022/12/13 06:52:35;;;;;;;33.67;16.10;;;;;;;;;;4978012;28;20466;-77
2022/12/13 06:55:01;;;;;;;33.55;16.42;;;;;;;;;;4977378;28;20082;-77
2022/12/13 06:57:27;;;;;;;36.50;17.17;;;;;;;;;;4977315;28;20466;-77
2022/12/13 06:59:53;;;;;;;34.10;18.25;;;;;;;;;;4978384;28;20078;-77
2022/12/13 07:02:19;;;;;;;35.78;19.05;;;;;;;;;;4959942;28;20024;-77
2022/12/13 07:04:45;;;;;;;34.60;17.42;;;;;;;;;;4976039;28;20027;-76
2022/12/13 07:07:12;;;;;;;31.70;16.85;;;;;;;;;;4976909;28;20031;-75
2022/12/13 07:09:38;;;;;;;36.22;16.63;;;;;;;;;;4977191;28;20019;-75
2022/12/13 07:12:04;;;;;;;35.78;16.52;;;;;;;;;;4976475;28;20029;-75
2022/12/13 07:14:30;;;;;;;33.78;17.45;;;;;;;;;;4976808;28;20062;-75
2022/12/13 07:16:58;;;;;;;33.63;17.33;;;;;;;;;;4976873;28;20075;-75
2022/12/13 07:19:24;;;;;;;33.67;16.48;;;;;;;;;;4977026;28;20057;-75
2022/12/13 07:21:50;;;;;;;36.63;16.90;;;;;;;;;;4976748;28;20054;-75
2022/12/13 07:24:15;;;;;;;33.58;17.80;;;;;;;;;;4976731;28;20385;-75
2022/12/13 07:26:41;;;;;;;34.80;16.83;;;;;;;;;;4976651;28;20026;-75
2022/12/13 07:29:07;;;;;;;29.30;16.08;;;;;;;;;;4976262;28;20030;-75
2022/12/13 07:31:35;;;;;;;35.20;16.80;;;;;;;;;;4976402;28;20038;-75
2022/12/13 07:34:01;;;;;;;31.50;15.80;;;;;;;;;;4976614;28;20031;-75
2022/12/13 07:36:27;;;;;;;33.33;16.80;;;;;;;;;;4986214;28;20037;-75
2022/12/13 07:38:54;;;;;;;30.60;16.20;;;;;;;;;;4978343;28;20022;-75
2022/12/13 07:41:20;;;;;;;39.22;16.20;;;;;;;;;;4995878;28;20030;-75
2022/12/13 07:43:46;;;;;;;32.42;14.70;;;;;;;;;;4995831;28;20030;-75
2022/12/13 07:46:13;;;;;;;28.35;15.18;;;;;;;;;;4995732;28;20037;-75
2022/12/13 07:48:39;;;;;;;29.42;15.57;;;;;;;;;;4978167;28;20030;-75
2022/12/13 07:51:06;;;;;;;31.05;15.80;;;;;;;;;;4990137;28;20018;-77
2022/12/13 07:53:33;;;;;;;31.52;15.40;;;;;;;;;;4976298;28;20038;-78
2022/12/13 07:56:02;;;;;;;30.33;15.52;;;;;;;;;;4976015;28;20061;-78
2022/12/13 07:58:35;;;;;;;30.35;15.93;;;;;;;;;;4975746;28;20023;-78
2022/12/13 08:01:02;;;;;;;31.00;15.32;;;;;;;;;;4995027;28;20372;-78
2022/12/13 08:03:28;;;;;;;35.75;15.07;;;;;;;;;;4995919;28;20029;-78
2022/12/13 08:06:04;;;;;;;32.10;15.15;;;;;;;;;;4995519;28;20026;-78
2022/12/13 08:08:30;;;;;;;34.83;15.43;;;;;;;;;;4995662;28;20025;-76
2022/12/13 08:11:16;;;;;;;29.20;15.48;;;;;;;;;;4994954;28;20019;-75
2022/12/13 08:13:42;;;;;;;30.40;14.45;;;;;;;;;;4995060;28;20400;-75
2022/12/13 08:16:09;;;;;;;32.80;15.18;;;;;;;;;;4995188;28;20041;-77
2022/12/13 08:18:35;;;;;;;32.67;15.68;;;;;;;;;;4995248;28;20058;-77
2022/12/13 08:21:05;;;;;;;30.55;14.82;;;;;;;;;;4995292;28;20018;-76
2022/12/13 08:23:32;;;;;;;36.55;15.38;;;;;;;;;;4995018;28;20426;-76
2022/12/13 08:25:59;;;;;;;34.45;15.50;;;;;;;;;;4981479;28;20098;-76
2022/12/13 08:28:25;;;;;;;33.70;15.30;;;;;;;;;;4975747;28;20023;-76
2022/12/13 08:30:52;;;;;;;31.23;15.25;;;;;;;;;;4989594;28;20023;-77
2022/12/13 08:33:18;;;;;;;33.45;15.30;;;;;;;;;;4985875;28;20026;-77
2022/12/13 08:35:44;;;;;;;33.90;15.93;;;;;;;;;;5014579;28;20053;-77
2022/12/13 08:38:11;;;;;;;34.75;15.25;;;;;;;;;;5014453;28;20072;-76
2022/12/13 08:40:37;;;;;;;31.95;15.45;;;;;;;;;;5014417;28;20052;-76
2022/12/13 08:43:04;;;;;;;36.78;15.48;;;;;;;;;;5014397;28;20423;-76
2022/12/13 08:45:33;;;;;;;35.25;16.42;;;;;;;;;;5014538;28;20026;-76
2022/12/13 08:48:00;;;;;;;36.20;15.77;;;;;;;;;;5014530;28;20030;-76
2022/12/13 08:50:26;;;;;;;38.40;17.30;;;;;;;;;;5000819;28;20462;-76
2022/12/13 08:52:52;;;;;;;40.10;15.80;;;;;;;;;;4994489;28;20026;-76
2022/12/13 08:55:18;;;;;;;36.85;16.52;;;;;;;;;;4985111;28;20055;-76
2022/12/13 08:57:44;;;;;;;37.45;15.68;;;;;;;;;;4975084;28;20359;-76
2022/12/13 09:00:15;;;;;;;34.58;16.25;;;;;;;;;;4974836;28;20027;-76
2022/12/13 09:02:41;;;;;;;28.77;15.75;;;;;;;;;;4975054;28;20034;-76
2022/12/13 09:05:08;;;;;;;30.75;15.55;;;;;;;;;;4974872;28;20035;-76
2022/12/13 09:07:35;;;;;;;36.00;16.90;;;;;;;;;;4974798;28;20030;-76
2022/12/13 09:10:01;;;;;;;33.17;16.15;;;;;;;;;;4974594;28;20031;-76
2022/12/13 09:12:27;;;;;;;35.22;16.27;;;;;;;;;;4974882;28;20033;-76
2022/12/13 09:14:53;;;;;;;30.17;15.02;;;;;;;;;;4974734;28;20031;-76
2022/12/13 09:17:19;;;;;;;33.78;15.73;;;;;;;;;;4980056;28;20034;-76
2022/12/13 09:19:45;;;;;;;34.22;16.42;;;;;;;;;;5013732;28;20025;-76
2022/12/13 09:22:11;;;;;;;29.77;15.88;;;;;;;;;;5013865;28;20076;-76
2022/12/13 09:24:37;;;;;;;31.00;14.90;;;;;;;;;;5013990;28;20022;-76
2022/12/13 09:27:04;;;;;;;33.03;15.50;;;;;;;;;;5013682;28;20022;-76
2022/12/13 09:29:31;;;;;;;31.25;16.33;;;;;;;;;;4980097;28;20034;-76
2022/12/13 09:31:57;;;;;;;35.88;15.85;;;;;;;;;;4998158;28;20441;-76
2022/12/13 09:34:23;;;;;;;33.47;14.85;;;;;;;;;;4997932;28;20039;-76
2022/12/13 09:36:49;;;;;;;32.75;14.93;;;;;;;;;;4997999;28;20164;-76
2022/12/13 09:39:15;;;;;;;29.77;15.18;;;;;;;;;;4998079;28;20018;-76
2022/12/13 09:41:43;;;;;;;34.83;15.05;;;;;;;;;;4998152;28;20022;-76
2022/12/13 09:44:21;;;;;;;31.75;15.43;;;;;;;;;;4997948;28;20487;-76
2022/12/13 09:46:47;;;;;;;31.05;15.35;;;;;;;;;;4978791;28;20035;-76
2022/12/13 09:49:18;;;;;;;27.40;13.23;;;;;;;;;;4978520;28;20027;-75
2022/12/13 09:51:44;;;;;;;;;;;;;;;;;;4961268;28;20114;-75
2022/12/13 09:54:15;;;;;;;31.42;15.15;;;;;;;;;;4978212;28;19910;-76
2022/12/13 09:56:41;;;;;;;;;;;;;;;;;;4978621;28;20049;-76
2022/12/13 09:59:12;;;;;;;31.35;15.13;;;;;;;;;;4978138;28;19910;-76
2022/12/13 10:01:38;;;;;;;34.35;15.85;;;;;;;;;;4978587;28;20130;-76
2022/12/13 10:04:08;;;;;;;32.40;16.40;;;;;;;;;;4978261;28;20121;-76
2022/12/13 10:06:35;;;;;;;35.22;15.98;;;;;;;;;;4996804;28;20041;-75
2022/12/13 10:09:02;;;;;;;34.95;16.02;;;;;;;;;;4997114;28;20022;-75
2022/12/13 10:11:28;;;;;;;30.17;15.57;;;;;;;;;;4997467;28;20384;-75
2022/12/13 10:13:59;;;;;;;36.17;16.80;;;;;;;;;;4997637;28;20030;-75
2022/12/13 10:16:25;;;;;;;32.70;16.25;;;;;;;;;;4997417;28;20389;-76
2022/12/13 10:18:51;;;;;;;32.58;15.63;;;;;;;;;;4997226;28;20033;-75
2022/12/13 10:21:21;;;;;;;34.13;16.55;;;;;;;;;;4997183;28;20019;-75
2022/12/13 10:23:47;;;;;;;34.15;15.95;;;;;;;;;;4997078;28;20113;-76
2022/12/13 10:26:14;;;;;;;33.00;16.13;;;;;;;;;;4997124;28;20026;-75
2022/12/13 10:28:40;;;;;;;35.95;16.75;;;;;;;;;;4997016;28;20030;-76
2022/12/13 10:31:06;;;;;;;37.15;16.63;;;;;;;;;;4997161;28;20027;-75
2022/12/13 10:33:36;;;;;;;42.15;17.48;;;;;;;;;;4996908;28;20046;-76
2022/12/13 10:36:04;;;;;;;35.38;16.13;;;;;;;;;;4996970;28;20049;-76
2022/12/13 10:38:31;;;;;;;35.38;17.10;;;;;;;;;;4996490;28;20109;-76
2022/12/13 10:40:56;;;;;;;36.60;17.25;;;;;;;;;;4996909;28;20084;-76
2022/12/13 10:43:25;;;;;;;36.55;17.90;;;;;;;;;;4996789;28;20027;-76
2022/12/13 10:45:57;;;;;;;38.92;18.02;;;;;;;;;;4996880;28;20018;-76
2022/12/13 10:48:24;;;;;;;33.55;17.50;;;;;;;;;;4994048;28;20529;-75
2022/12/13 10:51:02;;;;;;;38.80;17.33;;;;;;;;;;4977191;28;20462;-76
2022/12/13 10:53:48;;;;;;;34.28;16.30;;;;;;;;;;4976827;28;20030;-76
2022/12/13 10:56:15;;;;;;;34.88;17.30;;;;;;;;;;4976507;28;20043;-76
2022/12/13 10:58:48;;;;;;;38.58;17.60;;;;;;;;;;4977170;28;20019;-76
2022/12/13 11:01:23;;;;;;;32.47;16.70;;;;;;;;;;4976720;28;20019;-76
2022/12/13 11:04:15;;;;;;;41.28;18.35;;;;;;;;;;4977036;28;20377;-76
2022/12/13 11:06:43;;;;;;;36.15;17.17;;;;;;;;;;4976193;28;20137;-76
2022/12/13 11:09:25;;;;;;;42.42;18.27;;;;;;;;;;4976881;28;20466;-76
2022/12/13 11:11:52;;;;;;;39.72;18.88;;;;;;;;;;4976833;28;20101;-76
2022/12/13 11:14:20;;;;;;;41.05;19.80;;;;;;;;;;4987092;28;20034;-76
2022/12/13 11:16:50;;;;;;;37.72;18.25;;;;;;;;;;4986060;28;20027;-77
2022/12/13 11:19:18;;;;;;;38.45;17.65;;;;;;;;;;4995846;28;20103;-77
2022/12/13 11:21:47;;;;;;;37.80;17.55;;;;;;;;;;4984858;28;20048;-77
2022/12/13 11:24:19;;;;;;;40.13;18.10;;;;;;;;;;4986538;28;20030;-76
2022/12/13 11:26:49;;;;;;;41.45;18.83;;;;;;;;;;4987227;28;20086;-76
2022/12/13 11:29:24;;;;;;;35.55;17.30;;;;;;;;;;4995912;28;20025;-76
2022/12/13 11:32:09;;;;;;;36.28;17.48;;;;;;;;;;4996062;28;20061;-76
2022/12/13 11:34:41;;;;;;;38.33;17.35;;;;;;;;;;4996211;28;20465;-76
2022/12/13 11:37:19;;;;;;;35.58;17.30;;;;;;;;;;4995830;28;20101;-75
2022/12/13 11:39:49;;;;;;;36.58;17.20;;;;;;;;;;4994502;28;20022;-75
2022/12/13 11:42:27;;;;;;;32.72;17.10;;;;;;;;;;4995786;28;20105;-75
2022/12/13 11:45:02;;;;;;;33.33;16.90;;;;;;;;;;4995616;28;20030;-76
2022/12/13 11:47:49;;;;;;;41.17;18.17;;;;;;;;;;4995457;28;20470;-76
2022/12/13 11:50:17;;;;;;;35.83;17.13;;;;;;;;;;4984802;28;20038;-76
2022/12/13 11:52:54;;;;;;;33.78;16.20;;;;;;;;;;4995355;28;20023;-76
2022/12/13 11:55:29;;;;;;;35.42;16.73;;;;;;;;;;4994101;28;20046;-76
2022/12/13 11:58:06;;;;;;;33.38;16.50;;;;;;;;;;4995276;28;20374;-76
2022/12/13 12:00:47;;;;;;;32.80;15.43;;;;;;;;;;4982153;28;20035;-75
2022/12/13 12:03:19;;;;;;;39.78;18.00;;;;;;;;;;4975690;28;20093;-76
2022/12/13 12:05:48;;;;;;;30.60;15.32;;;;;;;;;;4975902;28;20031;-76
2022/12/13 12:08:35;;;;;;;34.15;16.33;;;;;;;;;;4958462;28;20025;-76
2022/12/13 12:11:09;;;;;;;31.38;14.73;;;;;;;;;;4975788;28;20029;-76
2022/12/13 12:13:41;;;;;;;33.88;15.57;;;;;;;;;;4976007;28;20076;-77
2022/12/13 12:16:07;;;;;;;34.67;15.35;;;;;;;;;;4975475;28;20038;-77
2022/12/13 12:18:33;;;;;;;33.42;15.93;;;;;;;;;;4975351;28;20022;-77
2022/12/13 12:21:00;;;;;;;33.17;15.55;;;;;;;;;;4975674;28;20029;-77
2022/12/13 12:23:41;;;;;;;37.47;16.23;;;;;;;;;;4975507;28;20098;-76
2022/12/13 12:26:09;;;;;;;31.98;15.07;;;;;;;;;;4975384;28;20027;-77
2022/12/13 12:28:54;;;;;;;32.38;15.68;;;;;;;;;;4975355;28;20023;-77
2022/12/13 12:31:20;;;;;;;34.42;16.42;;;;;;;;;;4975390;28;20019;-77
2022/12/13 12:33:49;;;;;;;32.80;15.63;;;;;;;;;;4974137;28;20377;-77
2022/12/13 12:36:31;;;;;;;32.65;16.13;;;;;;;;;;4974392;28;20048;-77
2022/12/13 12:39:10;;;;;;;35.70;16.95;;;;;;;;;;4974263;28;20493;-77
2022/12/13 12:41:54;;;;;;;28.58;16.40;;;;;;;;;;4974397;28;20022;-77
2022/12/13 12:44:39;;;;;;;31.50;16.88;;;;;;;;;;4956978;28;20426;-77
2022/12/13 12:47:16;;;;;;;30.83;15.32;;;;;;;;;;4974525;28;20027;-77
2022/12/13 12:49:52;;;;;;;28.27;15.55;;;;;;;;;;4975062;28;20417;-77
2022/12/13 12:52:33;;;;;;;35.33;16.08;;;;;;;;;;4975297;28;20394;-77
2022/12/13 12:55:22;;;;;;;28.13;15.40;;;;;;;;;;4974023;28;20371;-77
2022/12/13 12:58:08;;;;;;;30.55;14.98;;;;;;;;;;4935391;29;20091;-77
2022/12/13 13:00:53;;;;;;;26.50;14.40;;;;;;;;;;4936393;29;20039;-77
2022/12/13 13:03:21;;;;;;;31.25;15.27;;;;;;;;;;4936357;29;20032;-76
2022/12/13 13:05:51;;;;;;;25.50;14.77;;;;;;;;;;4936567;29;20102;-77
2022/12/13 13:08:23;;;;;;;31.02;14.30;;;;;;;;;;4945041;29;20042;-77
2022/12/13 13:10:49;;;;;;;28.48;14.38;;;;;;;;;;4955643;29;20027;-77
2022/12/13 13:13:32;;;;;;;29.23;14.55;;;;;;;;;;4955309;29;20039;-77
2022/12/13 13:15:58;;;;;;;29.55;14.82;;;;;;;;;;4955746;29;20051;-77
2022/12/13 13:18:43;;;;;;;30.05;14.63;;;;;;;;;;4955438;29;20038;-77
2022/12/13 13:21:32;;;;;;;29.23;14.38;;;;;;;;;;4955638;29;20102;-77
2022/12/13 13:24:01;;;;;;;30.58;15.20;;;;;;;;;;4950093;28;20039;-77
2022/12/13 13:26:31;;;;;;;31.95;15.63;;;;;;;;;;4955558;29;20032;-77
2022/12/13 13:29:16;;;;;;;32.60;14.88;;;;;;;;;;4955321;29;20027;-77
2022/12/13 13:31:57;;;;;;;32.88;16.20;;;;;;;;;;4955558;29;20386;-77
2022/12/13 13:34:27;;;;;;;28.67;14.85;;;;;;;;;;4955241;29;20023;-77
2022/12/13 13:36:57;;;;;;;29.23;14.68;;;;;;;;;;4955321;29;20411;-77
2022/12/13 13:39:26;;;;;;;28.90;14.95;;;;;;;;;;4947654;29;20023;-77
2022/12/13 13:41:53;;;;;;;30.80;14.90;;;;;;;;;;4955496;29;20454;-78
2022/12/13 13:44:37;;;;;;;27.95;15.23;;;;;;;;;;4955516;29;20122;-78
2022/12/13 13:47:11;;;;;;;32.88;15.65;;;;;;;;;;4955445;29;20510;-78
2022/12/13 13:49:39;;;;;;;28.48;15.13;;;;;;;;;;4955607;29;20019;-77
2022/12/13 13:52:19;;;;;;;31.88;17.05;;;;;;;;;;4955845;29;20501;-78
2022/12/13 13:54:57;;;;;;;30.30;14.73;;;;;;;;;;4946243;29;20032;-78
2022/12/13 13:57:27;;;;;;;30.50;16.10;;;;;;;;;;4975067;28;20525;-78
2022/12/13 14:00:11;;;;;;;29.08;14.70;;;;;;;;;;4982898;28;20470;-78
2022/12/13 14:02:55;;;;;;;29.27;15.25;;;;;;;;;;4965100;28;20035;-77
2022/12/13 14:05:24;;;;;;;31.45;14.27;;;;;;;;;;4983329;28;20077;-78
2022/12/13 14:08:01;;;;;;;29.80;15.02;;;;;;;;;;4983246;28;20035;-78
2022/12/13 14:10:27;;;;;;;33.08;16.17;;;;;;;;;;4983716;28;20054;-78
2022/12/13 14:13:12;;;;;;;31.52;15.10;;;;;;;;;;4985282;28;20373;-78
2022/12/13 14:15:41;;;;;;;30.92;15.30;;;;;;;;;;4982840;28;20027;-78
2022/12/13 14:18:26;;;;;;;27.52;14.98;;;;;;;;;;4985241;28;20023;-78
2022/12/13 14:20:55;;;;;;;32.75;16.30;;;;;;;;;;4989052;28;20030;-78
2022/12/13 14:23:39;;;;;;;34.92;16.88;;;;;;;;;;4985849;28;20481;-78
2022/12/13 14:26:25;;;;;;;32.05;17.35;;;;;;;;;;4984766;28;20043;-78
2022/12/13 14:28:54;;;;;;;30.77;15.50;;;;;;;;;;4985994;28;20102;-78
2022/12/13 14:31:21;;;;;;;29.58;15.90;;;;;;;;;;4981760;28;20050;-78
2022/12/13 14:33:48;;;;;;;34.75;16.08;;;;;;;;;;4979582;28;20158;-77
2022/12/13 14:36:16;;;;;;;32.97;16.27;;;;;;;;;;4997495;28;20018;-78